createdAt,value
2023-01-13T00:01:25.819Z,10.20
2023-01-13T00:03:54.881Z,10.11
2023-01-13T00:06:25.903Z,10.13
2023-01-13T00:08:58.012Z,10.12
2023-01-13T00:11:26.524Z,10.14
2023-01-13T00:13:54.291Z,10.14
2023-01-13T00:16:22.527Z,10.11
2023-01-13T00:18:51.390Z,10.05
2023-01-13T00:21:23.128Z,9.98
2023-01-13T00:23:52.942Z,10.04
2023-01-13T00:26:23.317Z,10.01
2023-01-13T00:28:51.770Z,9.92
2023-01-13T00:31:21.622Z,10.01
2023-01-13T00:33:51.108Z,10.01
2023-01-13T00:36:22.876Z,9.94
2023-01-13T00:38:51.012Z,9.96
2023-01-13T00:41:20.145Z,9.85
2023-01-13T00:43:49.181Z,9.93
2023-01-13T00:46:18.968Z,9.87
2023-01-13T00:48:47.121Z,9.84
2023-01-13T00:51:17.509Z,9.84
2023-01-13T00:53:48.231Z,9.93
2023-01-13T00:56:34.128Z,9.93
2023-01-13T00:59:09.036Z,10.00
2023-01-13T01:01:36.991Z,10.03
2023-01-13T01:04:05.204Z,10.06
2023-01-13T01:06:33.085Z,10.02
2023-01-13T01:09:02.171Z,10.04
2023-01-13T01:11:32.007Z,10.09
2023-01-13T01:14:03.131Z,10.05
2023-01-13T01:16:33.132Z,10.04
2023-01-13T01:19:03.723Z,10.12
2023-01-13T01:21:31.855Z,10.05
2023-01-13T01:24:03.700Z,10.09
2023-01-13T01:26:33.579Z,10.15
2023-01-13T01:29:02.533Z,10.10
2023-01-13T01:31:33.132Z,10.18
2023-01-13T01:34:02.128Z,10.29
2023-01-13T01:36:30.384Z,10.24
2023-01-13T01:39:01.759Z,10.14
2023-01-13T01:41:33.632Z,10.11
2023-01-13T01:44:04.408Z,10.13
2023-01-13T01:46:35.035Z,10.20
2023-01-13T01:49:11.998Z,10.23
2023-01-13T01:51:45.038Z,10.31
2023-01-13T01:54:15.994Z,10.21
2023-01-13T01:56:47.282Z,10.21
2023-01-13T01:59:16.063Z,10.17
2023-01-13T02:01:45.260Z,10.18
2023-01-13T02:04:16.229Z,10.22
2023-01-13T02:06:48.198Z,10.11
2023-01-13T02:09:17.660Z,10.09
2023-01-13T02:12:04.373Z,10.06
2023-01-13T02:14:35.256Z,10.10
2023-01-13T02:17:20.988Z,10.19
2023-01-13T02:20:25.552Z,10.26
2023-01-13T02:23:35.044Z,10.25
2023-01-13T02:26:33.678Z,10.25
2023-01-13T02:29:33.651Z,10.28
2023-01-13T02:32:10.138Z,10.35
2023-01-13T02:34:41.619Z,10.27
2023-01-13T02:37:15.838Z,10.37
2023-01-13T02:39:58.773Z,10.33
2023-01-13T02:42:49.120Z,10.37
2023-01-13T02:45:21.525Z,10.29
2023-01-13T02:47:55.902Z,10.32
2023-01-13T02:50:28.954Z,10.38
2023-01-13T02:53:00.693Z,10.41
2023-01-13T02:55:34.117Z,10.37
2023-01-13T02:58:12.969Z,10.37
2023-01-13T03:00:41.944Z,10.38
2023-01-13T03:03:12.987Z,10.34
2023-01-13T03:05:43.355Z,10.37
2023-01-13T03:08:39.450Z,10.42
2023-01-13T03:11:09.625Z,10.36
2023-01-13T03:13:56.931Z,10.50
2023-01-13T03:16:31.357Z,10.41
2023-01-13T03:19:14.755Z,10.46
2023-01-13T03:21:49.570Z,10.48
2023-01-13T03:24:21.102Z,10.52
2023-01-13T03:26:52.679Z,10.51
2023-01-13T03:29:23.561Z,10.42
2023-01-13T03:32:00.541Z,10.42
2023-01-13T03:34:35.672Z,10.40
2023-01-13T03:37:06.971Z,10.42
2023-01-13T03:39:38.887Z,10.45
2023-01-13T03:42:09.833Z,10.46
2023-01-13T03:44:42.882Z,10.47
2023-01-13T03:47:18.028Z,10.45
2023-01-13T03:49:55.597Z,10.48
2023-01-13T03:52:28.566Z,10.57
2023-01-13T03:55:01.466Z,10.55
2023-01-13T03:57:32.385Z,10.62
2023-01-13T04:00:03.886Z,10.56
2023-01-13T04:02:42.458Z,10.51
2023-01-13T04:05:12.613Z,10.52
2023-01-13T04:07:47.906Z,10.53
2023-01-13T04:10:19.480Z,10.56
2023-01-13T04:13:04.228Z,10.61
2023-01-13T04:15:39.069Z,10.61
2023-01-13T04:18:18.171Z,10.61
2023-01-13T04:20:49.841Z,10.51
2023-01-13T04:23:18.248Z,10.51
2023-01-13T04:25:46.506Z,10.63
2023-01-13T04:28:15.171Z,10.66
2023-01-13T04:30:43.764Z,10.69
2023-01-13T04:33:12.069Z,10.61
2023-01-13T04:35:40.467Z,10.64
2023-01-13T04:38:12.488Z,10.58
2023-01-13T04:40:40.284Z,10.64
2023-01-13T04:43:08.356Z,10.67
2023-01-13T04:45:36.062Z,10.63
2023-01-13T04:48:04.403Z,10.56
2023-01-13T04:50:32.468Z,10.61
2023-01-13T04:53:01.102Z,10.65
2023-01-13T04:55:31.878Z,10.60
2023-01-13T04:58:03.318Z,10.68
2023-01-13T05:00:31.964Z,10.66
2023-01-13T05:03:02.344Z,10.81
2023-01-13T05:05:30.935Z,10.82
2023-01-13T05:07:58.679Z,10.73
2023-01-13T05:10:26.954Z,10.64
2023-01-13T05:13:13.619Z,10.60
2023-01-13T05:15:59.553Z,10.55
2023-01-13T05:18:27.295Z,10.40
2023-01-13T05:20:54.933Z,10.35
2023-01-13T05:23:40.055Z,10.39
2023-01-13T05:26:08.022Z,10.34
2023-01-13T05:28:36.915Z,10.36
2023-01-13T05:31:04.607Z,10.37
2023-01-13T05:33:33.660Z,10.43
2023-01-13T05:36:05.796Z,10.19
2023-01-13T05:38:33.322Z,10.08
2023-01-13T05:41:18.607Z,10.01
2023-01-13T05:43:47.611Z,10.01
2023-01-13T05:46:17.558Z,9.94
2023-01-13T05:48:45.882Z,9.85
2023-01-13T05:51:14.188Z,9.74
2023-01-13T05:53:42.157Z,9.68
2023-01-13T05:56:11.028Z,9.60
2023-01-13T05:58:39.028Z,9.54
2023-01-13T06:01:10.800Z,9.33
2023-01-13T06:03:38.994Z,9.36
2023-01-13T06:06:09.944Z,9.31
2023-01-13T06:08:39.722Z,9.15
2023-01-13T06:11:07.684Z,8.99
2023-01-13T06:13:35.420Z,9.04
2023-01-13T06:16:03.157Z,8.96
2023-01-13T06:18:32.159Z,8.95
2023-01-13T06:20:59.697Z,9.06
2023-01-13T06:23:27.827Z,9.08
2023-01-13T06:26:05.109Z,9.03
2023-01-13T06:28:33.180Z,9.11
2023-01-13T06:31:04.149Z,9.12
2023-01-13T06:33:37.688Z,9.11
2023-01-13T06:36:11.355Z,9.07
2023-01-13T06:38:43.520Z,9.12
2023-01-13T06:41:11.238Z,9.07
2023-01-13T06:43:41.336Z,9.00
2023-01-13T06:46:09.154Z,9.03
2023-01-13T06:48:38.046Z,9.02
2023-01-13T06:51:06.171Z,9.10
2023-01-13T06:53:33.948Z,9.12
2023-01-13T06:56:01.603Z,9.03
2023-01-13T06:58:29.270Z,9.02
2023-01-13T07:01:01.169Z,8.93
2023-01-13T07:03:28.780Z,8.91
2023-01-13T07:05:58.639Z,9.02
2023-01-13T07:08:26.288Z,9.01
2023-01-13T07:10:54.159Z,9.02
2023-01-13T07:13:39.890Z,9.05
2023-01-13T07:16:09.281Z,8.95
2023-01-13T07:18:37.896Z,8.89
2023-01-13T07:21:09.160Z,8.83
2023-01-13T07:23:39.444Z,8.96
2023-01-13T07:26:08.124Z,8.91
2023-01-13T07:28:36.237Z,8.86
2023-01-13T07:31:04.819Z,8.67
2023-01-13T07:33:33.489Z,8.67
2023-01-13T07:36:02.825Z,8.70
2023-01-13T07:38:32.884Z,8.61
2023-01-13T07:41:22.017Z,8.64
2023-01-13T07:43:48.807Z,8.74
2023-01-13T07:46:16.615Z,8.62
2023-01-13T07:48:44.493Z,8.58
2023-01-13T07:51:13.444Z,8.55
2023-01-13T07:53:42.402Z,8.56
2023-01-13T07:56:10.407Z,8.48
2023-01-13T07:58:38.651Z,8.48
2023-01-13T08:01:09.074Z,8.45
2023-01-13T08:03:37.900Z,8.29
2023-01-13T08:06:06.265Z,8.40
2023-01-13T08:08:33.975Z,8.64
2023-01-13T08:11:08.220Z,8.75
2023-01-13T08:13:35.984Z,8.77
2023-01-13T08:16:08.174Z,8.92
2023-01-13T08:18:38.751Z,8.93
2023-01-13T08:21:08.559Z,8.99
2023-01-13T08:23:36.814Z,9.02
2023-01-13T08:26:11.632Z,9.04
2023-01-13T08:28:41.160Z,9.20
2023-01-13T08:31:11.364Z,9.27
2023-01-13T08:33:39.375Z,9.32
2023-01-13T08:36:09.699Z,9.36
2023-01-13T08:38:38.337Z,9.40
2023-01-13T08:41:11.925Z,9.45
2023-01-13T08:43:39.734Z,9.49
2023-01-13T08:46:07.543Z,9.28
2023-01-13T08:48:36.650Z,9.45
2023-01-13T08:51:06.553Z,9.50
2023-01-13T08:53:34.219Z,9.57
2023-01-13T08:56:02.058Z,9.71
2023-01-13T08:58:30.945Z,9.63
2023-01-13T09:00:58.575Z,9.75
2023-01-13T09:03:26.394Z,9.91
2023-01-13T09:05:54.021Z,9.91
2023-01-13T09:08:21.704Z,9.92
2023-01-13T09:10:49.368Z,10.03
2023-01-13T09:13:17.052Z,9.97
2023-01-13T09:15:47.250Z,9.90
2023-01-13T09:18:17.409Z,9.67
2023-01-13T09:20:45.250Z,9.69
2023-01-13T09:23:12.842Z,9.60
2023-01-13T09:25:40.745Z,9.65
2023-01-13T09:28:09.010Z,9.48
2023-01-13T09:30:38.340Z,9.51
2023-01-13T09:33:25.029Z,9.64
2023-01-13T09:35:52.677Z,9.62
2023-01-13T09:38:20.200Z,9.66
2023-01-13T09:40:50.985Z,9.67
2023-01-13T09:43:42.194Z,9.80
2023-01-13T09:46:31.202Z,9.85
2023-01-13T09:49:06.119Z,9.89
2023-01-13T09:51:39.665Z,9.96
2023-01-13T09:54:15.747Z,9.75
2023-01-13T09:56:43.585Z,9.82
2023-01-13T09:59:12.612Z,9.88
2023-01-13T10:01:52.726Z,10.04
2023-01-13T10:04:21.738Z,10.11
2023-01-13T10:06:56.464Z,10.31
2023-01-13T10:09:31.444Z,10.51
2023-01-13T10:12:19.147Z,10.65
2023-01-13T10:14:53.486Z,10.69
2023-01-13T10:17:28.150Z,10.61
2023-01-13T10:20:04.694Z,10.56
2023-01-13T10:22:48.520Z,10.41
2023-01-13T10:25:26.035Z,10.30
2023-01-13T10:27:56.516Z,10.46
2023-01-13T10:30:31.151Z,10.28
2023-01-13T10:33:11.203Z,10.30
2023-01-13T10:36:00.472Z,10.25
2023-01-13T10:38:31.327Z,10.39
2023-01-13T10:41:01.057Z,10.29
2023-01-13T10:43:29.719Z,10.43
2023-01-13T10:46:01.171Z,10.65
2023-01-13T10:48:38.230Z,10.79
2023-01-13T10:51:20.956Z,10.97
2023-01-13T10:53:55.507Z,11.27
2023-01-13T10:56:26.127Z,11.39
2023-01-13T10:59:09.720Z,11.32
2023-01-13T11:01:37.647Z,11.22
2023-01-13T11:04:27.083Z,11.37
2023-01-13T11:06:59.863Z,11.59
2023-01-13T11:09:36.548Z,11.64
2023-01-13T11:12:05.391Z,11.74
2023-01-13T11:14:42.019Z,11.61
2023-01-13T11:17:33.692Z,11.52
2023-01-13T11:20:13.572Z,11.55
2023-01-13T11:22:46.691Z,11.70
2023-01-13T11:25:20.644Z,11.52
2023-01-13T11:27:53.140Z,11.18
2023-01-13T11:30:29.580Z,11.18
2023-01-13T11:33:10.874Z,10.98
2023-01-13T11:35:43.206Z,11.01
2023-01-13T11:38:15.596Z,10.95
2023-01-13T11:40:47.447Z,11.19
2023-01-13T11:43:21.669Z,11.15
2023-01-13T11:45:53.465Z,10.96
2023-01-13T11:48:26.898Z,10.91
2023-01-13T11:51:01.039Z,10.89
2023-01-13T11:53:41.102Z,11.06
2023-01-13T11:56:26.895Z,11.13
2023-01-13T11:59:18.477Z,11.32
2023-01-13T12:02:03.239Z,11.39
2023-01-13T12:04:42.129Z,11.24
2023-01-13T12:07:18.326Z,11.24
2023-01-13T12:10:03.199Z,11.00
2023-01-13T12:12:44.251Z,11.21
2023-01-13T12:15:53.893Z,11.33
2023-01-13T12:18:41.991Z,11.00
2023-01-13T12:21:21.027Z,11.02
2023-01-13T12:23:58.903Z,10.91
2023-01-13T12:26:32.871Z,10.77
2023-01-13T12:29:05.702Z,10.67
2023-01-13T12:31:36.652Z,10.32
2023-01-13T12:34:23.151Z,10.19
2023-01-13T12:36:59.656Z,10.21
2023-01-13T12:39:35.364Z,10.43
2023-01-13T12:42:33.615Z,10.75
2023-01-13T12:45:32.813Z,10.84
2023-01-13T12:48:01.828Z,10.78
2023-01-13T12:50:42.055Z,10.70
2023-01-13T12:53:31.988Z,10.76
2023-01-13T12:56:35.415Z,10.86
2023-01-13T12:59:35.597Z,11.18
2023-01-13T13:02:32.745Z,11.15
2023-01-13T13:05:37.313Z,11.20
2023-01-13T13:08:14.482Z,11.28
2023-01-13T13:10:55.965Z,11.52
2023-01-13T13:13:42.135Z,11.33
2023-01-13T13:16:47.521Z,11.34
2023-01-13T13:19:44.933Z,11.21
2023-01-13T13:22:38.262Z,11.06
2023-01-13T13:25:22.376Z,10.85
2023-01-13T13:28:00.320Z,10.65
2023-01-13T13:30:31.033Z,10.45
2023-01-13T13:33:13.556Z,10.41
2023-01-13T13:36:00.096Z,10.25
2023-01-13T13:39:06.218Z,10.21
2023-01-13T13:42:06.204Z,9.97
2023-01-13T13:44:55.079Z,9.88
2023-01-13T13:47:22.964Z,9.39
2023-01-13T13:49:54.523Z,9.06
2023-01-13T13:52:26.486Z,8.99
2023-01-13T13:54:59.066Z,9.16
2023-01-13T13:57:33.959Z,9.17
2023-01-13T14:00:01.856Z,9.42
2023-01-13T14:02:31.240Z,9.55
2023-01-13T14:05:20.480Z,9.51
2023-01-13T14:07:51.172Z,9.48
2023-01-13T14:10:22.028Z,9.47
2023-01-13T14:12:49.701Z,9.41
2023-01-13T14:15:26.308Z,9.45
2023-01-13T14:17:54.133Z,9.36
2023-01-13T14:20:23.152Z,9.07
2023-01-13T14:22:53.464Z,9.03
2023-01-13T14:25:33.156Z,9.12
2023-01-13T14:28:17.225Z,9.35
2023-01-13T14:30:45.452Z,9.56
2023-01-13T14:33:17.217Z,9.71
2023-01-13T14:36:21.831Z,9.61
2023-01-13T14:39:11.951Z,9.45
2023-01-13T14:41:47.083Z,9.30
2023-01-13T14:44:23.100Z,9.39
2023-01-13T14:46:51.599Z,9.32
2023-01-13T14:49:28.000Z,9.24
2023-01-13T14:52:05.771Z,9.25
2023-01-13T14:54:50.195Z,9.19
2023-01-13T14:57:27.554Z,9.22
2023-01-13T15:00:04.183Z,9.37
2023-01-13T15:02:39.345Z,9.23
2023-01-13T15:05:38.248Z,9.20
2023-01-13T15:08:26.867Z,9.30
2023-01-13T15:10:59.964Z,9.19
2023-01-13T15:13:35.630Z,9.15
2023-01-13T15:16:08.032Z,9.11
2023-01-13T15:18:39.993Z,9.20
2023-01-13T15:21:08.044Z,9.32
2023-01-13T15:23:36.050Z,9.34
2023-01-13T15:26:16.857Z,9.40
2023-01-13T15:28:44.528Z,9.39
2023-01-13T15:31:12.088Z,9.34
2023-01-13T15:33:40.018Z,9.41
2023-01-13T15:36:18.316Z,9.39
2023-01-13T15:38:45.985Z,9.38
2023-01-13T15:41:14.866Z,9.36
2023-01-13T15:44:00.075Z,9.29
2023-01-13T15:46:40.458Z,9.30
2023-01-13T15:49:14.911Z,9.36
2023-01-13T15:51:44.439Z,9.26
2023-01-13T15:54:12.660Z,9.26
2023-01-13T15:56:42.538Z,9.21
2023-01-13T15:59:17.356Z,9.28
2023-01-13T16:01:45.457Z,9.26
2023-01-13T16:04:13.207Z,9.26
2023-01-13T16:06:40.822Z,9.14
2023-01-13T16:09:08.713Z,9.06
2023-01-13T16:11:36.244Z,8.99
2023-01-13T16:14:05.154Z,8.94
2023-01-13T16:16:32.909Z,8.74
2023-01-13T16:19:00.681Z,8.72
2023-01-13T16:21:28.219Z,8.69
2023-01-13T16:23:55.876Z,8.73
2023-01-13T16:26:25.267Z,8.67
2023-01-13T16:28:54.584Z,8.72
2023-01-13T16:31:30.473Z,8.73
2023-01-13T16:33:59.123Z,8.77
2023-01-13T16:36:27.539Z,8.79
2023-01-13T16:38:55.133Z,8.74
2023-01-13T16:41:24.800Z,8.72
2023-01-13T16:43:53.030Z,8.82
2023-01-13T16:46:23.376Z,8.81
2023-01-13T16:48:53.281Z,8.74
2023-01-13T16:51:21.565Z,8.84
2023-01-13T16:53:49.751Z,8.88
2023-01-13T16:56:28.661Z,8.89
2023-01-13T16:58:58.372Z,8.86
2023-01-13T17:01:28.169Z,8.81
2023-01-13T17:03:58.265Z,8.73
2023-01-13T17:06:30.070Z,8.85
2023-01-13T17:09:01.848Z,8.82
2023-01-13T17:11:29.390Z,8.73
2023-01-13T17:13:56.956Z,8.76
2023-01-13T17:16:26.069Z,8.77
2023-01-13T17:18:54.484Z,8.68
2023-01-13T17:21:23.443Z,8.76
2023-01-13T17:23:51.525Z,8.84
2023-01-13T17:26:32.401Z,8.87
2023-01-13T17:29:01.085Z,8.94
2023-01-13T17:31:29.660Z,8.80
2023-01-13T17:33:57.702Z,8.81
2023-01-13T17:36:26.638Z,8.83
2023-01-13T17:38:55.454Z,8.93
2023-01-13T17:41:23.795Z,8.86
2023-01-13T17:43:52.265Z,8.94
2023-01-13T17:46:20.644Z,8.76
2023-01-13T17:48:48.348Z,8.70
2023-01-13T17:51:17.393Z,8.78
2023-01-13T17:53:46.571Z,8.72
2023-01-13T17:56:16.870Z,8.69
2023-01-13T17:58:45.369Z,8.75
2023-01-13T18:01:15.622Z,8.62
2023-01-13T18:03:43.659Z,8.61
2023-01-13T18:06:16.025Z,8.56
2023-01-13T18:08:43.747Z,8.44
2023-01-13T18:11:13.016Z,8.37
2023-01-13T18:13:42.011Z,8.39
2023-01-13T18:16:11.579Z,8.27
2023-01-13T18:18:40.277Z,8.20
2023-01-13T18:21:26.183Z,8.30
2023-01-13T18:24:11.760Z,8.31
2023-01-13T18:26:58.579Z,8.31
2023-01-13T18:29:26.285Z,8.50
2023-01-13T18:31:53.899Z,8.49
2023-01-13T18:34:21.678Z,8.32
2023-01-13T18:36:49.317Z,8.30
2023-01-13T18:39:17.886Z,8.39
2023-01-13T18:42:04.502Z,8.29
2023-01-13T18:44:32.046Z,8.22
2023-01-13T18:46:59.581Z,8.31
2023-01-13T18:49:27.964Z,8.34
2023-01-13T18:51:55.568Z,8.27
2023-01-13T18:54:23.642Z,8.11
2023-01-13T18:56:55.194Z,8.06
2023-01-13T18:59:22.761Z,8.03
2023-01-13T19:01:50.528Z,8.06
2023-01-13T19:04:19.678Z,8.23
2023-01-13T19:06:51.303Z,8.25
2023-01-13T19:09:20.488Z,8.25
2023-01-13T19:11:48.158Z,8.30
2023-01-13T19:14:34.127Z,8.33
2023-01-13T19:17:02.665Z,8.36
2023-01-13T19:19:30.348Z,8.38
2023-01-13T19:21:58.281Z,8.45
2023-01-13T19:24:26.432Z,8.44
2023-01-13T19:26:54.448Z,8.42
2023-01-13T19:29:23.432Z,8.38
2023-01-13T19:31:51.245Z,8.41
2023-01-13T19:34:19.089Z,8.41
2023-01-13T19:36:47.059Z,8.50
2023-01-13T19:39:14.959Z,8.46
2023-01-13T19:42:02.638Z,8.57
2023-01-13T19:44:49.276Z,8.51
2023-01-13T19:47:18.245Z,8.55
2023-01-13T19:49:46.028Z,8.47
2023-01-13T19:52:13.972Z,8.53
2023-01-13T19:54:41.631Z,8.50
2023-01-13T19:57:09.243Z,8.54
2023-01-13T19:59:40.881Z,8.42
2023-01-13T20:02:15.753Z,8.48
2023-01-13T20:04:45.063Z,8.46
2023-01-13T20:07:14.514Z,8.37
2023-01-13T20:09:43.778Z,8.39
2023-01-13T20:12:12.703Z,8.49
2023-01-13T20:14:42.972Z,8.53
2023-01-13T20:17:11.570Z,8.41
2023-01-13T20:19:39.480Z,8.50
2023-01-13T20:22:07.925Z,8.51
2023-01-13T20:24:36.149Z,8.55
2023-01-13T20:27:04.259Z,8.53
2023-01-13T20:29:33.093Z,8.45
2023-01-13T20:32:02.336Z,8.46
2023-01-13T20:34:30.074Z,8.55
2023-01-13T20:36:57.766Z,8.42
2023-01-13T20:39:27.198Z,8.37
2023-01-13T20:42:12.801Z,8.31
2023-01-13T20:44:42.721Z,8.26
2023-01-13T20:47:12.622Z,8.33
2023-01-13T20:49:42.403Z,8.18
2023-01-13T20:52:10.600Z,8.26
2023-01-13T20:54:39.047Z,8.25
2023-01-13T20:57:09.597Z,8.26
2023-01-13T20:59:37.932Z,8.28
2023-01-13T21:02:07.332Z,8.06
2023-01-13T21:04:36.261Z,8.09
2023-01-13T21:07:03.913Z,8.02
2023-01-13T21:09:32.199Z,7.95
2023-01-13T21:12:17.585Z,7.95
2023-01-13T21:15:02.992Z,7.89
2023-01-13T21:17:48.759Z,7.89
2023-01-13T21:20:18.941Z,7.84
2023-01-13T21:22:49.014Z,7.90
2023-01-13T21:25:18.367Z,7.76
2023-01-13T21:27:46.049Z,7.81
2023-01-13T21:30:15.276Z,7.78
2023-01-13T21:32:45.424Z,7.93
2023-01-13T21:35:14.370Z,8.09
2023-01-13T21:37:44.906Z,8.05
2023-01-13T21:40:14.942Z,8.03
2023-01-13T21:43:00.095Z,8.12
2023-01-13T21:45:42.829Z,7.99
2023-01-13T21:48:12.690Z,7.96
2023-01-13T21:50:43.057Z,7.87
2023-01-13T21:53:11.978Z,7.84
2023-01-13T21:55:39.545Z,7.93
2023-01-13T21:58:12.157Z,8.05
2023-01-13T22:00:41.062Z,8.01
2023-01-13T22:03:10.220Z,8.02
2023-01-13T22:05:38.229Z,7.96
2023-01-13T22:08:06.983Z,7.88
2023-01-13T22:10:36.346Z,7.74
2023-01-13T22:13:24.533Z,7.74
2023-01-13T22:15:52.163Z,7.73
2023-01-13T22:18:19.841Z,7.63
2023-01-13T22:20:48.648Z,7.58
2023-01-13T22:23:16.215Z,7.62
2023-01-13T22:25:45.182Z,7.51
2023-01-13T22:28:15.899Z,7.47
2023-01-13T22:30:45.255Z,7.44
2023-01-13T22:33:15.204Z,7.44
2023-01-13T22:35:43.256Z,7.35
2023-01-13T22:38:12.095Z,7.45
2023-01-13T22:40:39.668Z,7.44
2023-01-13T22:43:10.358Z,7.51
2023-01-13T22:45:39.102Z,7.50
2023-01-13T22:48:07.031Z,7.54
2023-01-13T22:50:34.749Z,7.63
2023-01-13T22:53:02.333Z,7.51
2023-01-13T22:55:30.201Z,7.56
2023-01-13T22:57:57.767Z,7.47
2023-01-13T23:00:26.708Z,7.50
2023-01-13T23:02:54.252Z,7.55
2023-01-13T23:05:21.976Z,7.62
2023-01-13T23:07:49.504Z,7.69
2023-01-13T23:10:17.867Z,7.59
2023-01-13T23:12:45.732Z,7.72
2023-01-13T23:15:15.785Z,7.65
2023-01-13T23:17:44.701Z,7.76
2023-01-13T23:20:15.149Z,7.59
2023-01-13T23:22:42.856Z,7.53
2023-01-13T23:25:11.443Z,7.54
2023-01-13T23:27:39.395Z,7.59
2023-01-13T23:30:10.478Z,7.66
2023-01-13T23:32:39.581Z,7.52
2023-01-13T23:35:09.632Z,7.54
2023-01-13T23:37:37.205Z,7.53
2023-01-13T23:40:05.531Z,7.57
2023-01-13T23:42:33.340Z,7.55
2023-01-13T23:45:00.982Z,7.71
2023-01-13T23:47:28.810Z,7.69
2023-01-13T23:49:56.633Z,7.77
2023-01-13T23:52:25.569Z,7.67
2023-01-13T23:54:55.068Z,7.62
2023-01-13T23:57:22.660Z,7.57
2023-01-13T23:59:50.386Z,7.59
